sensor_id;sensor_type;location;lat;lon;timestamp;P1;durP1;ratioP1;P2;durP2;ratioP2
51594;SDS011;37677;53.254;6.594;2023-03-20T00:00:28;10.13;;;6.53;;
51594;SDS011;37677;53.254;6.594;2023-03-20T00:02:59;7.97;;;6.20;;
51594;SDS011;37677;53.254;6.594;2023-03-20T00:05:26;8.70;;;5.63;;
51594;SDS011;37677;53.254;6.594;2023-03-20T00:07:54;9.43;;;5.90;;
51594;SDS011;37677;53.254;6.594;2023-03-20T00:10:24;7.80;;;5.90;;
51594;SDS011;37677;53.254;6.594;2023-03-20T00:12:53;9.45;;;6.13;;
51594;SDS011;37677;53.254;6.594;2023-03-20T00:15:26;9.73;;;6.28;;
51594;SDS011;37677;53.254;6.594;2023-03-20T00:17:56;10.18;;;6.40;;
51594;SDS011;37677;53.254;6.594;2023-03-20T00:20:23;14.63;;;7.38;;
51594;SDS011;37677;53.254;6.594;2023-03-20T00:22:49;10.48;;;6.60;;
51594;SDS011;37677;53.254;6.594;2023-03-20T00:25:15;9.13;;;7.03;;
51594;SDS011;37677;53.254;6.594;2023-03-20T00:27:43;12.05;;;7.30;;
51594;SDS011;37677;53.254;6.594;2023-03-20T00:30:20;12.45;;;6.53;;
51594;SDS011;37677;53.254;6.594;2023-03-20T00:32:48;10.68;;;6.20;;
51594;SDS011;37677;53.254;6.594;2023-03-20T00:35:20;9.23;;;6.55;;
51594;SDS011;37677;53.254;6.594;2023-03-20T00:37:48;8.73;;;6.18;;
51594;SDS011;37677;53.254;6.594;2023-03-20T00:40:14;8.45;;;5.75;;
51594;SDS011;37677;53.254;6.594;2023-03-20T00:42:40;7.60;;;5.70;;
51594;SDS011;37677;53.254;6.594;2023-03-20T00:45:10;10.48;;;5.90;;
51594;SDS011;37677;53.254;6.594;2023-03-20T00:47:40;7.53;;;5.47;;
51594;SDS011;37677;53.254;6.594;2023-03-20T00:50:13;8.25;;;5.35;;
51594;SDS011;37677;53.254;6.594;2023-03-20T00:52:48;7.85;;;5.65;;
51594;SDS011;37677;53.254;6.594;2023-03-20T00:55:17;8.88;;;5.68;;
51594;SDS011;37677;53.254;6.594;2023-03-20T00:57:50;9.93;;;5.78;;
51594;SDS011;37677;53.254;6.594;2023-03-20T01:00:19;8.38;;;5.90;;
51594;SDS011;37677;53.254;6.594;2023-03-20T01:02:52;11.35;;;5.53;;
51594;SDS011;37677;53.254;6.594;2023-03-20T01:05:22;8.80;;;5.72;;
51594;SDS011;37677;53.254;6.594;2023-03-20T01:07:48;6.65;;;5.20;;
51594;SDS011;37677;53.254;6.594;2023-03-20T01:10:14;10.48;;;5.88;;
51594;SDS011;37677;53.254;6.594;2023-03-20T01:12:41;10.52;;;5.85;;
51594;SDS011;37677;53.254;6.594;2023-03-20T01:15:19;11.52;;;5.63;;
51594;SDS011;37677;53.254;6.594;2023-03-20T01:17:47;11.10;;;5.47;;
51594;SDS011;37677;53.254;6.594;2023-03-20T01:20:35;12.18;;;5.65;;
51594;SDS011;37677;53.254;6.594;2023-03-20T01:23:00;12.68;;;6.28;;
51594;SDS011;37677;53.254;6.594;2023-03-20T01:25:26;9.38;;;5.93;;
51594;SDS011;37677;53.254;6.594;2023-03-20T01:27:52;11.20;;;6.45;;
51594;SDS011;37677;53.254;6.594;2023-03-20T01:30:20;13.55;;;6.43;;
51594;SDS011;37677;53.254;6.594;2023-03-20T01:32:47;9.02;;;5.55;;
51594;SDS011;37677;53.254;6.594;2023-03-20T01:35:20;10.25;;;5.78;;
51594;SDS011;37677;53.254;6.594;2023-03-20T01:37:48;13.27;;;5.95;;
51594;SDS011;37677;53.254;6.594;2023-03-20T01:40:16;11.63;;;6.43;;
51594;SDS011;37677;53.254;6.594;2023-03-20T01:42:44;13.25;;;6.13;;
51594;SDS011;37677;53.254;6.594;2023-03-20T01:45:18;13.88;;;5.97;;
51594;SDS011;37677;53.254;6.594;2023-03-20T01:47:46;13.37;;;6.50;;
51594;SDS011;37677;53.254;6.594;2023-03-20T01:52:52;11.32;;;6.78;;
51594;SDS011;37677;53.254;6.594;2023-03-20T01:55:22;12.32;;;5.80;;
51594;SDS011;37677;53.254;6.594;2023-03-20T01:57:49;12.75;;;5.80;;
51594;SDS011;37677;53.254;6.594;2023-03-20T02:00:17;12.05;;;6.13;;
51594;SDS011;37677;53.254;6.594;2023-03-20T02:02:43;12.48;;;6.50;;
51594;SDS011;37677;53.254;6.594;2023-03-20T02:05:11;20.15;;;7.32;;
51594;SDS011;37677;53.254;6.594;2023-03-20T02:07:41;14.60;;;6.72;;
51594;SDS011;37677;53.254;6.594;2023-03-20T02:10:14;13.25;;;7.75;;
51594;SDS011;37677;53.254;6.594;2023-03-20T02:12:43;14.88;;;7.43;;
51594;SDS011;37677;53.254;6.594;2023-03-20T02:15:10;14.85;;;7.28;;
51594;SDS011;37677;53.254;6.594;2023-03-20T02:17:37;18.73;;;8.60;;
51594;SDS011;37677;53.254;6.594;2023-03-20T02:25:36;12.60;;;8.00;;
51594;SDS011;37677;53.254;6.594;2023-03-20T02:33:38;21.17;;;9.82;;
51594;SDS011;37677;53.254;6.594;2023-03-20T02:36:22;14.98;;;8.93;;
51594;SDS011;37677;53.254;6.594;2023-03-20T02:46:25;19.00;;;9.30;;
51594;SDS011;37677;53.254;6.594;2023-03-20T02:52:01;20.92;;;9.73;;
51594;SDS011;37677;53.254;6.594;2023-03-20T02:57:13;21.80;;;9.88;;
51594;SDS011;37677;53.254;6.594;2023-03-20T02:59:45;23.45;;;10.13;;
51594;SDS011;37677;53.254;6.594;2023-03-20T03:02:55;22.58;;;10.23;;
51594;SDS011;37677;53.254;6.594;2023-03-20T03:05:37;17.60;;;9.35;;
51594;SDS011;37677;53.254;6.594;2023-03-20T03:08:08;23.05;;;10.23;;
51594;SDS011;37677;53.254;6.594;2023-03-20T03:10:45;19.55;;;10.18;;
51594;SDS011;37677;53.254;6.594;2023-03-20T03:13:23;17.42;;;9.80;;
51594;SDS011;37677;53.254;6.594;2023-03-20T03:15:53;16.83;;;9.73;;
51594;SDS011;37677;53.254;6.594;2023-03-20T03:18:26;17.27;;;9.52;;
51594;SDS011;37677;53.254;6.594;2023-03-20T03:20:55;18.05;;;9.80;;
51594;SDS011;37677;53.254;6.594;2023-03-20T03:23:45;22.75;;;10.52;;
51594;SDS011;37677;53.254;6.594;2023-03-20T03:26:12;21.42;;;10.52;;
51594;SDS011;37677;53.254;6.594;2023-03-20T03:28:50;20.40;;;10.27;;
51594;SDS011;37677;53.254;6.594;2023-03-20T03:31:21;16.17;;;9.65;;
51594;SDS011;37677;53.254;6.594;2023-03-20T03:33:49;22.40;;;10.48;;
51594;SDS011;37677;53.254;6.594;2023-03-20T03:39:23;20.63;;;10.98;;
51594;SDS011;37677;53.254;6.594;2023-03-20T03:41:56;23.77;;;11.15;;
51594;SDS011;37677;53.254;6.594;2023-03-20T03:47:07;23.88;;;10.52;;
51594;SDS011;37677;53.254;6.594;2023-03-20T03:49:42;19.75;;;10.82;;
51594;SDS011;37677;53.254;6.594;2023-03-20T03:52:15;15.88;;;10.35;;
51594;SDS011;37677;53.254;6.594;2023-03-20T03:54:50;19.20;;;11.02;;
51594;SDS011;37677;53.254;6.594;2023-03-20T03:57:28;15.73;;;10.15;;
51594;SDS011;37677;53.254;6.594;2023-03-20T03:59:59;22.23;;;10.75;;
51594;SDS011;37677;53.254;6.594;2023-03-20T04:02:27;23.13;;;10.48;;
51594;SDS011;37677;53.254;6.594;2023-03-20T04:04:53;14.88;;;10.27;;
51594;SDS011;37677;53.254;6.594;2023-03-20T04:07:20;18.88;;;10.70;;
51594;SDS011;37677;53.254;6.594;2023-03-20T04:09:46;18.70;;;10.63;;
51594;SDS011;37677;53.254;6.594;2023-03-20T04:12:27;16.58;;;10.30;;
51594;SDS011;37677;53.254;6.594;2023-03-20T04:15:00;17.98;;;10.73;;
51594;SDS011;37677;53.254;6.594;2023-03-20T04:17:26;14.60;;;10.18;;
51594;SDS011;37677;53.254;6.594;2023-03-20T04:19:52;15.70;;;10.63;;
51594;SDS011;37677;53.254;6.594;2023-03-20T04:22:17;16.67;;;10.10;;
51594;SDS011;37677;53.254;6.594;2023-03-20T04:24:43;16.58;;;10.35;;
51594;SDS011;37677;53.254;6.594;2023-03-20T04:27:08;16.42;;;10.27;;
51594;SDS011;37677;53.254;6.594;2023-03-20T04:29:34;16.33;;;9.90;;
51594;SDS011;37677;53.254;6.594;2023-03-20T04:32:00;14.95;;;9.52;;
51594;SDS011;37677;53.254;6.594;2023-03-20T04:34:26;14.68;;;9.43;;
51594;SDS011;37677;53.254;6.594;2023-03-20T04:36:51;12.13;;;9.43;;
51594;SDS011;37677;53.254;6.594;2023-03-20T04:39:17;18.98;;;10.25;;
51594;SDS011;37677;53.254;6.594;2023-03-20T04:41:43;15.82;;;9.10;;
51594;SDS011;37677;53.254;6.594;2023-03-20T04:44:08;14.15;;;9.23;;
51594;SDS011;37677;53.254;6.594;2023-03-20T04:46:34;15.45;;;9.48;;
51594;SDS011;37677;53.254;6.594;2023-03-20T04:49:00;13.57;;;8.30;;
51594;SDS011;37677;53.254;6.594;2023-03-20T04:51:25;19.80;;;9.55;;
51594;SDS011;37677;53.254;6.594;2023-03-20T04:53:51;13.77;;;9.25;;
51594;SDS011;37677;53.254;6.594;2023-03-20T04:56:17;18.35;;;9.68;;
51594;SDS011;37677;53.254;6.594;2023-03-20T04:58:42;18.30;;;9.90;;
51594;SDS011;37677;53.254;6.594;2023-03-20T05:01:08;19.35;;;10.55;;
51594;SDS011;37677;53.254;6.594;2023-03-20T05:03:33;17.27;;;10.43;;
51594;SDS011;37677;53.254;6.594;2023-03-20T05:05:59;14.70;;;9.73;;
51594;SDS011;37677;53.254;6.594;2023-03-20T05:08:25;18.08;;;10.77;;
51594;SDS011;37677;53.254;6.594;2023-03-20T05:10:51;17.40;;;10.55;;
51594;SDS011;37677;53.254;6.594;2023-03-20T05:13:17;19.63;;;11.18;;
51594;SDS011;37677;53.254;6.594;2023-03-20T05:15:42;18.55;;;12.30;;
51594;SDS011;37677;53.254;6.594;2023-03-20T05:18:08;18.70;;;11.13;;
51594;SDS011;37677;53.254;6.594;2023-03-20T05:20:34;16.92;;;10.90;;
51594;SDS011;37677;53.254;6.594;2023-03-20T05:23:00;19.70;;;12.02;;
51594;SDS011;37677;53.254;6.594;2023-03-20T05:25:27;21.38;;;12.90;;
51594;SDS011;37677;53.254;6.594;2023-03-20T05:27:52;20.98;;;11.95;;
51594;SDS011;37677;53.254;6.594;2023-03-20T05:30:18;18.67;;;12.57;;
51594;SDS011;37677;53.254;6.594;2023-03-20T05:32:44;17.17;;;13.02;;
51594;SDS011;37677;53.254;6.594;2023-03-20T05:35:13;21.27;;;12.38;;
51594;SDS011;37677;53.254;6.594;2023-03-20T05:37:39;17.42;;;12.75;;
51594;SDS011;37677;53.254;6.594;2023-03-20T05:40:04;21.08;;;12.82;;
51594;SDS011;37677;53.254;6.594;2023-03-20T05:42:31;15.05;;;11.68;;
51594;SDS011;37677;53.254;6.594;2023-03-20T05:44:57;20.75;;;11.77;;
51594;SDS011;37677;53.254;6.594;2023-03-20T05:47:23;19.60;;;11.52;;
51594;SDS011;37677;53.254;6.594;2023-03-20T05:49:48;17.48;;;11.60;;
51594;SDS011;37677;53.254;6.594;2023-03-20T05:52:14;18.95;;;11.10;;
51594;SDS011;37677;53.254;6.594;2023-03-20T05:54:40;17.45;;;11.35;;
51594;SDS011;37677;53.254;6.594;2023-03-20T05:57:05;19.52;;;11.80;;
51594;SDS011;37677;53.254;6.594;2023-03-20T05:59:31;17.02;;;11.02;;
51594;SDS011;37677;53.254;6.594;2023-03-20T06:01:56;15.77;;;10.40;;
51594;SDS011;37677;53.254;6.594;2023-03-20T06:04:22;19.15;;;11.00;;
51594;SDS011;37677;53.254;6.594;2023-03-20T06:06:48;18.30;;;12.05;;
51594;SDS011;37677;53.254;6.594;2023-03-20T06:09:13;17.83;;;10.48;;
51594;SDS011;37677;53.254;6.594;2023-03-20T06:11:39;15.88;;;10.85;;
51594;SDS011;37677;53.254;6.594;2023-03-20T06:14:05;17.35;;;10.77;;
51594;SDS011;37677;53.254;6.594;2023-03-20T06:16:31;16.95;;;10.52;;
51594;SDS011;37677;53.254;6.594;2023-03-20T06:18:56;14.88;;;10.65;;
51594;SDS011;37677;53.254;6.594;2023-03-20T06:21:22;18.27;;;11.43;;
51594;SDS011;37677;53.254;6.594;2023-03-20T06:23:48;17.92;;;11.88;;
51594;SDS011;37677;53.254;6.594;2023-03-20T06:26:13;21.08;;;12.10;;
51594;SDS011;37677;53.254;6.594;2023-03-20T06:28:39;19.45;;;11.57;;
51594;SDS011;37677;53.254;6.594;2023-03-20T06:31:05;16.70;;;11.38;;
51594;SDS011;37677;53.254;6.594;2023-03-20T06:33:33;17.40;;;11.27;;
51594;SDS011;37677;53.254;6.594;2023-03-20T06:35:58;20.13;;;11.02;;
51594;SDS011;37677;53.254;6.594;2023-03-20T06:38:24;18.80;;;11.55;;
51594;SDS011;37677;53.254;6.594;2023-03-20T06:40:50;17.90;;;12.18;;
51594;SDS011;37677;53.254;6.594;2023-03-20T06:43:15;16.15;;;11.20;;
51594;SDS011;37677;53.254;6.594;2023-03-20T06:45:41;16.63;;;11.90;;
51594;SDS011;37677;53.254;6.594;2023-03-20T06:48:07;16.83;;;12.23;;
51594;SDS011;37677;53.254;6.594;2023-03-20T06:50:33;17.80;;;12.40;;
51594;SDS011;37677;53.254;6.594;2023-03-20T06:52:59;18.15;;;12.55;;
51594;SDS011;37677;53.254;6.594;2023-03-20T06:55:25;19.55;;;11.57;;
51594;SDS011;37677;53.254;6.594;2023-03-20T06:57:51;18.77;;;12.32;;
51594;SDS011;37677;53.254;6.594;2023-03-20T07:00:17;19.02;;;12.38;;
51594;SDS011;37677;53.254;6.594;2023-03-20T07:02:44;19.45;;;12.43;;
51594;SDS011;37677;53.254;6.594;2023-03-20T07:05:10;20.40;;;12.43;;
51594;SDS011;37677;53.254;6.594;2023-03-20T07:07:36;19.73;;;11.70;;
51594;SDS011;37677;53.254;6.594;2023-03-20T07:10:06;19.95;;;12.88;;
51594;SDS011;37677;53.254;6.594;2023-03-20T07:12:32;22.23;;;11.50;;
51594;SDS011;37677;53.254;6.594;2023-03-20T07:14:58;17.88;;;12.10;;
51594;SDS011;37677;53.254;6.594;2023-03-20T07:17:24;18.15;;;12.15;;
51594;SDS011;37677;53.254;6.594;2023-03-20T07:19:49;17.85;;;12.80;;
51594;SDS011;37677;53.254;6.594;2023-03-20T07:22:20;17.48;;;12.65;;
51594;SDS011;37677;53.254;6.594;2023-03-20T07:24:50;19.63;;;12.80;;
51594;SDS011;37677;53.254;6.594;2023-03-20T07:27:16;18.00;;;12.75;;
51594;SDS011;37677;53.254;6.594;2023-03-20T07:29:42;17.42;;;12.30;;
51594;SDS011;37677;53.254;6.594;2023-03-20T07:32:08;17.60;;;12.02;;
51594;SDS011;37677;53.254;6.594;2023-03-20T07:34:34;14.20;;;11.52;;
51594;SDS011;37677;53.254;6.594;2023-03-20T07:37:00;19.90;;;12.80;;
51594;SDS011;37677;53.254;6.594;2023-03-20T07:39:25;14.85;;;12.77;;
51594;SDS011;37677;53.254;6.594;2023-03-20T07:41:51;20.95;;;12.13;;
51594;SDS011;37677;53.254;6.594;2023-03-20T07:44:17;19.35;;;12.85;;
51594;SDS011;37677;53.254;6.594;2023-03-20T07:46:43;22.00;;;12.43;;
51594;SDS011;37677;53.254;6.594;2023-03-20T07:49:11;18.48;;;12.55;;
51594;SDS011;37677;53.254;6.594;2023-03-20T07:51:38;17.63;;;12.00;;
51594;SDS011;37677;53.254;6.594;2023-03-20T07:54:04;17.30;;;12.60;;
51594;SDS011;37677;53.254;6.594;2023-03-20T07:56:30;19.30;;;12.32;;
51594;SDS011;37677;53.254;6.594;2023-03-20T07:58:56;19.88;;;12.27;;
51594;SDS011;37677;53.254;6.594;2023-03-20T08:01:21;16.08;;;12.02;;
51594;SDS011;37677;53.254;6.594;2023-03-20T08:03:47;20.60;;;13.15;;
51594;SDS011;37677;53.254;6.594;2023-03-20T08:06:13;21.70;;;12.40;;
51594;SDS011;37677;53.254;6.594;2023-03-20T08:08:38;18.52;;;12.93;;
51594;SDS011;37677;53.254;6.594;2023-03-20T08:11:04;22.45;;;12.88;;
51594;SDS011;37677;53.254;6.594;2023-03-20T08:13:30;17.83;;;12.68;;
51594;SDS011;37677;53.254;6.594;2023-03-20T08:15:56;15.68;;;12.60;;
51594;SDS011;37677;53.254;6.594;2023-03-20T08:18:22;16.55;;;12.18;;
51594;SDS011;37677;53.254;6.594;2023-03-20T08:20:47;17.67;;;12.38;;
51594;SDS011;37677;53.254;6.594;2023-03-20T08:23:16;18.48;;;13.23;;
51594;SDS011;37677;53.254;6.594;2023-03-20T08:25:45;21.13;;;12.80;;
51594;SDS011;37677;53.254;6.594;2023-03-20T08:28:12;20.08;;;13.65;;
51594;SDS011;37677;53.254;6.594;2023-03-20T08:30:37;17.17;;;12.15;;
51594;SDS011;37677;53.254;6.594;2023-03-20T08:33:03;20.42;;;12.38;;
51594;SDS011;37677;53.254;6.594;2023-03-20T08:35:30;17.30;;;13.05;;
51594;SDS011;37677;53.254;6.594;2023-03-20T08:37:56;19.38;;;12.55;;
51594;SDS011;37677;53.254;6.594;2023-03-20T08:40:21;20.05;;;13.27;;
51594;SDS011;37677;53.254;6.594;2023-03-20T08:42:47;21.27;;;13.32;;
51594;SDS011;37677;53.254;6.594;2023-03-20T08:45:13;17.60;;;13.05;;
51594;SDS011;37677;53.254;6.594;2023-03-20T08:47:38;21.67;;;13.75;;
51594;SDS011;37677;53.254;6.594;2023-03-20T08:50:04;20.58;;;12.52;;
51594;SDS011;37677;53.254;6.594;2023-03-20T08:52:31;18.98;;;11.52;;
51594;SDS011;37677;53.254;6.594;2023-03-20T08:54:57;19.35;;;12.50;;
51594;SDS011;37677;53.254;6.594;2023-03-20T08:57:23;20.33;;;12.85;;
51594;SDS011;37677;53.254;6.594;2023-03-20T08:59:49;17.33;;;12.63;;
51594;SDS011;37677;53.254;6.594;2023-03-20T09:02:14;19.65;;;12.70;;
51594;SDS011;37677;53.254;6.594;2023-03-20T09:04:40;17.30;;;12.10;;
51594;SDS011;37677;53.254;6.594;2023-03-20T09:07:06;20.13;;;12.93;;
51594;SDS011;37677;53.254;6.594;2023-03-20T09:09:32;15.98;;;11.38;;
51594;SDS011;37677;53.254;6.594;2023-03-20T09:11:58;17.48;;;11.95;;
51594;SDS011;37677;53.254;6.594;2023-03-20T09:14:25;18.67;;;12.18;;
51594;SDS011;37677;53.254;6.594;2023-03-20T09:16:51;18.17;;;12.63;;
51594;SDS011;37677;53.254;6.594;2023-03-20T09:19:17;16.73;;;11.68;;
51594;SDS011;37677;53.254;6.594;2023-03-20T09:21:44;19.58;;;11.80;;
51594;SDS011;37677;53.254;6.594;2023-03-20T09:24:10;18.48;;;11.30;;
51594;SDS011;37677;53.254;6.594;2023-03-20T09:26:36;19.02;;;12.13;;
51594;SDS011;37677;53.254;6.594;2023-03-20T09:29:02;22.20;;;12.55;;
51594;SDS011;37677;53.254;6.594;2023-03-20T09:31:29;19.00;;;11.55;;
51594;SDS011;37677;53.254;6.594;2023-03-20T09:33:54;16.65;;;10.75;;
51594;SDS011;37677;53.254;6.594;2023-03-20T09:36:20;20.73;;;10.90;;
51594;SDS011;37677;53.254;6.594;2023-03-20T09:38:46;16.92;;;11.13;;
51594;SDS011;37677;53.254;6.594;2023-03-20T09:41:21;15.68;;;11.30;;
51594;SDS011;37677;53.254;6.594;2023-03-20T09:52:21;18.98;;;12.15;;
51594;SDS011;37677;53.254;6.594;2023-03-20T09:54:57;17.58;;;11.07;;
51594;SDS011;37677;53.254;6.594;2023-03-20T09:57:46;18.00;;;11.23;;
51594;SDS011;37677;53.254;6.594;2023-03-20T10:00:17;19.38;;;10.80;;
51594;SDS011;37677;53.254;6.594;2023-03-20T10:02:58;22.38;;;11.45;;
51594;SDS011;37677;53.254;6.594;2023-03-20T10:05:52;17.10;;;11.90;;
51594;SDS011;37677;53.254;6.594;2023-03-20T10:08:14;20.48;;;10.82;;
51594;SDS011;37677;53.254;6.594;2023-03-20T10:10:54;18.73;;;10.70;;
51594;SDS011;37677;53.254;6.594;2023-03-20T10:16:25;22.58;;;10.38;;
51594;SDS011;37677;53.254;6.594;2023-03-20T10:21:50;24.05;;;10.70;;
51594;SDS011;37677;53.254;6.594;2023-03-20T10:24:23;16.98;;;10.00;;
51594;SDS011;37677;53.254;6.594;2023-03-20T10:27:00;17.63;;;9.50;;
51594;SDS011;37677;53.254;6.594;2023-03-20T10:34:47;16.92;;;9.75;;
51594;SDS011;37677;53.254;6.594;2023-03-20T10:42:29;23.20;;;10.85;;
51594;SDS011;37677;53.254;6.594;2023-03-20T10:47:43;17.77;;;8.80;;
51594;SDS011;37677;53.254;6.594;2023-03-20T10:50:20;19.88;;;8.60;;
51594;SDS011;37677;53.254;6.594;2023-03-20T10:52:57;16.13;;;8.48;;
51594;SDS011;37677;53.254;6.594;2023-03-20T10:55:27;17.50;;;8.18;;
51594;SDS011;37677;53.254;6.594;2023-03-20T10:58:01;17.73;;;8.90;;
51594;SDS011;37677;53.254;6.594;2023-03-20T11:00:33;20.65;;;8.48;;
51594;SDS011;37677;53.254;6.594;2023-03-20T11:02:58;19.25;;;8.13;;
51594;SDS011;37677;53.254;6.594;2023-03-20T11:05:27;18.73;;;7.95;;
51594;SDS011;37677;53.254;6.594;2023-03-20T11:08:00;16.50;;;8.45;;
51594;SDS011;37677;53.254;6.594;2023-03-20T11:10:27;14.45;;;7.55;;
51594;SDS011;37677;53.254;6.594;2023-03-20T11:12:55;16.02;;;8.50;;
51594;SDS011;37677;53.254;6.594;2023-03-20T11:15:30;19.42;;;8.30;;
51594;SDS011;37677;53.254;6.594;2023-03-20T11:18:02;21.15;;;7.35;;
51594;SDS011;37677;53.254;6.594;2023-03-20T11:20:35;19.13;;;6.93;;
51594;SDS011;37677;53.254;6.594;2023-03-20T11:23:04;17.98;;;6.75;;
51594;SDS011;37677;53.254;6.594;2023-03-20T11:25:38;14.68;;;6.57;;
51594;SDS011;37677;53.254;6.594;2023-03-20T11:28:34;13.05;;;7.35;;
51594;SDS011;37677;53.254;6.594;2023-03-20T11:33:36;15.77;;;7.35;;
51594;SDS011;37677;53.254;6.594;2023-03-20T11:36:26;19.55;;;8.00;;
51594;SDS011;37677;53.254;6.594;2023-03-20T11:39:04;17.23;;;7.25;;
51594;SDS011;37677;53.254;6.594;2023-03-20T11:41:40;14.80;;;7.07;;
51594;SDS011;37677;53.254;6.594;2023-03-20T11:44:50;16.98;;;7.25;;
51594;SDS011;37677;53.254;6.594;2023-03-20T11:47:05;20.92;;;6.97;;
51594;SDS011;37677;53.254;6.594;2023-03-20T11:50:23;13.50;;;6.30;;
51594;SDS011;37677;53.254;6.594;2023-03-20T11:52:35;16.27;;;6.50;;
51594;SDS011;37677;53.254;6.594;2023-03-20T11:55:04;14.68;;;6.55;;
51594;SDS011;37677;53.254;6.594;2023-03-20T11:57:46;12.77;;;5.53;;
51594;SDS011;37677;53.254;6.594;2023-03-20T12:00:18;12.38;;;6.07;;
51594;SDS011;37677;53.254;6.594;2023-03-20T12:02:46;13.90;;;6.25;;
51594;SDS011;37677;53.254;6.594;2023-03-20T12:08:18;12.05;;;5.13;;
51594;SDS011;37677;53.254;6.594;2023-03-20T12:10:53;15.10;;;5.40;;
51594;SDS011;37677;53.254;6.594;2023-03-20T12:13:30;12.88;;;5.45;;
51594;SDS011;37677;53.254;6.594;2023-03-20T12:16:05;13.98;;;6.40;;
51594;SDS011;37677;53.254;6.594;2023-03-20T12:18:37;16.67;;;6.40;;
51594;SDS011;37677;53.254;6.594;2023-03-20T12:21:12;15.25;;;6.78;;
51594;SDS011;37677;53.254;6.594;2023-03-20T12:23:56;13.15;;;6.35;;
51594;SDS011;37677;53.254;6.594;2023-03-20T12:31:49;9.43;;;4.60;;
51594;SDS011;37677;53.254;6.594;2023-03-20T12:34:22;12.40;;;5.70;;
51594;SDS011;37677;53.254;6.594;2023-03-20T12:36:53;8.60;;;3.78;;
51594;SDS011;37677;53.254;6.594;2023-03-20T12:39:23;9.70;;;3.90;;
51594;SDS011;37677;53.254;6.594;2023-03-20T12:50:29;9.18;;;3.88;;
51594;SDS011;37677;53.254;6.594;2023-03-20T13:01:20;10.13;;;4.40;;
51594;SDS011;37677;53.254;6.594;2023-03-20T13:06:48;8.60;;;5.20;;
51594;SDS011;37677;53.254;6.594;2023-03-20T13:17:28;10.77;;;5.53;;
51594;SDS011;37677;53.254;6.594;2023-03-20T13:30:31;8.85;;;5.78;;
51594;SDS011;37677;53.254;6.594;2023-03-20T13:35:52;9.38;;;5.53;;
51594;SDS011;37677;53.254;6.594;2023-03-20T13:38:42;11.80;;;5.70;;
51594;SDS011;37677;53.254;6.594;2023-03-20T13:41:11;8.38;;;5.25;;
51594;SDS011;37677;53.254;6.594;2023-03-20T13:43:42;7.60;;;4.95;;
51594;SDS011;37677;53.254;6.594;2023-03-20T13:46:40;12.05;;;6.15;;
51594;SDS011;37677;53.254;6.594;2023-03-20T13:52:06;8.13;;;5.65;;
51594;SDS011;37677;53.254;6.594;2023-03-20T14:05:39;8.73;;;6.05;;
51594;SDS011;37677;53.254;6.594;2023-03-20T14:11:23;8.98;;;7.78;;
51594;SDS011;37677;53.254;6.594;2023-03-20T14:14:02;6.45;;;5.80;;
51594;SDS011;37677;53.254;6.594;2023-03-20T14:16:38;8.63;;;6.20;;
51594;SDS011;37677;53.254;6.594;2023-03-20T14:19:14;6.25;;;5.57;;
51594;SDS011;37677;53.254;6.594;2023-03-20T14:21:46;9.80;;;5.90;;
51594;SDS011;37677;53.254;6.594;2023-03-20T14:24:14;8.60;;;6.10;;
51594;SDS011;37677;53.254;6.594;2023-03-20T14:26:45;6.63;;;5.90;;
51594;SDS011;37677;53.254;6.594;2023-03-20T14:37:44;5.85;;;5.18;;
51594;SDS011;37677;53.254;6.594;2023-03-20T14:40:32;6.45;;;5.63;;
51594;SDS011;37677;53.254;6.594;2023-03-20T14:43:11;7.32;;;6.53;;
51594;SDS011;37677;53.254;6.594;2023-03-20T14:48:34;7.10;;;5.63;;
51594;SDS011;37677;53.254;6.594;2023-03-20T14:53:32;5.65;;;5.07;;
51594;SDS011;37677;53.254;6.594;2023-03-20T15:06:18;5.97;;;4.95;;
51594;SDS011;37677;53.254;6.594;2023-03-20T15:09:04;6.75;;;5.95;;
51594;SDS011;37677;53.254;6.594;2023-03-20T15:11:33;6.43;;;5.72;;
51594;SDS011;37677;53.254;6.594;2023-03-20T15:14:03;7.53;;;6.82;;
51594;SDS011;37677;53.254;6.594;2023-03-20T15:16:34;10.30;;;7.40;;
51594;SDS011;37677;53.254;6.594;2023-03-20T15:19:03;7.75;;;7.05;;
51594;SDS011;37677;53.254;6.594;2023-03-20T15:21:37;8.20;;;7.40;;
51594;SDS011;37677;53.254;6.594;2023-03-20T15:24:05;8.43;;;7.63;;
51594;SDS011;37677;53.254;6.594;2023-03-20T15:26:32;8.48;;;7.68;;
51594;SDS011;37677;53.254;6.594;2023-03-20T15:29:01;10.27;;;8.90;;
51594;SDS011;37677;53.254;6.594;2023-03-20T15:31:37;10.27;;;9.00;;
51594;SDS011;37677;53.254;6.594;2023-03-20T15:34:08;11.48;;;10.38;;
51594;SDS011;37677;53.254;6.594;2023-03-20T15:36:42;11.20;;;10.10;;
51594;SDS011;37677;53.254;6.594;2023-03-20T15:39:15;12.73;;;10.68;;
51594;SDS011;37677;53.254;6.594;2023-03-20T15:41:49;10.90;;;9.88;;
51594;SDS011;37677;53.254;6.594;2023-03-20T15:44:36;12.18;;;10.23;;
51594;SDS011;37677;53.254;6.594;2023-03-20T15:49:36;11.15;;;10.10;;
51594;SDS011;37677;53.254;6.594;2023-03-20T15:54:42;14.50;;;12.18;;
51594;SDS011;37677;53.254;6.594;2023-03-20T15:57:08;12.18;;;10.98;;
51594;SDS011;37677;53.254;6.594;2023-03-20T15:59:42;14.75;;;11.35;;
51594;SDS011;37677;53.254;6.594;2023-03-20T16:02:09;12.77;;;11.60;;
51594;SDS011;37677;53.254;6.594;2023-03-20T16:04:41;14.52;;;12.65;;
51594;SDS011;37677;53.254;6.594;2023-03-20T16:07:18;13.52;;;12.15;;
51594;SDS011;37677;53.254;6.594;2023-03-20T16:09:48;14.80;;;13.40;;
51594;SDS011;37677;53.254;6.594;2023-03-20T16:12:15;14.13;;;12.65;;
51594;SDS011;37677;53.254;6.594;2023-03-20T16:14:41;13.20;;;11.90;;
51594;SDS011;37677;53.254;6.594;2023-03-20T16:17:09;14.73;;;13.27;;
51594;SDS011;37677;53.254;6.594;2023-03-20T16:19:37;15.32;;;13.75;;
51594;SDS011;37677;53.254;6.594;2023-03-20T16:24:53;16.45;;;14.85;;
51594;SDS011;37677;53.254;6.594;2023-03-20T16:27:27;14.63;;;13.35;;
51594;SDS011;37677;53.254;6.594;2023-03-20T16:29:56;15.02;;;13.48;;
51594;SDS011;37677;53.254;6.594;2023-03-20T16:32:32;15.70;;;14.30;;
51594;SDS011;37677;53.254;6.594;2023-03-20T16:35:04;15.48;;;14.05;;
51594;SDS011;37677;53.254;6.594;2023-03-20T16:37:52;15.65;;;14.05;;
51594;SDS011;37677;53.254;6.594;2023-03-20T16:40:20;13.90;;;12.70;;
51594;SDS011;37677;53.254;6.594;2023-03-20T16:42:52;17.73;;;16.00;;
51594;SDS011;37677;53.254;6.594;2023-03-20T16:45:29;14.52;;;13.20;;
51594;SDS011;37677;53.254;6.594;2023-03-20T16:50:35;19.48;;;13.90;;
51594;SDS011;37677;53.254;6.594;2023-03-20T16:53:04;14.82;;;13.23;;
51594;SDS011;37677;53.254;6.594;2023-03-20T16:55:48;14.13;;;12.80;;
51594;SDS011;37677;53.254;6.594;2023-03-20T16:58:26;14.13;;;12.93;;
51594;SDS011;37677;53.254;6.594;2023-03-20T17:01:05;14.32;;;12.90;;
51594;SDS011;37677;53.254;6.594;2023-03-20T17:08:49;13.25;;;12.15;;
51594;SDS011;37677;53.254;6.594;2023-03-20T17:13:58;16.80;;;15.20;;
51594;SDS011;37677;53.254;6.594;2023-03-20T17:16:24;14.88;;;13.48;;
51594;SDS011;37677;53.254;6.594;2023-03-20T17:19:00;13.75;;;12.65;;
51594;SDS011;37677;53.254;6.594;2023-03-20T17:21:31;15.25;;;13.95;;
51594;SDS011;37677;53.254;6.594;2023-03-20T17:23:57;15.30;;;14.00;;
51594;SDS011;37677;53.254;6.594;2023-03-20T17:26:23;16.35;;;14.75;;
51594;SDS011;37677;53.254;6.594;2023-03-20T17:28:49;14.77;;;13.55;;
51594;SDS011;37677;53.254;6.594;2023-03-20T17:31:16;14.82;;;13.52;;
51594;SDS011;37677;53.254;6.594;2023-03-20T17:33:43;14.05;;;12.85;;
51594;SDS011;37677;53.254;6.594;2023-03-20T17:36:30;14.30;;;13.05;;